sensor_id;sensor_type;location;lat;lon;timestamp;temperature;humidity
11989;DHT22;6054;50.966;7.094;2023-08-30T00:00:58;24.30;52.30
11989;DHT22;6054;50.966;7.094;2023-08-30T00:03:25;24.20;52.40
11989;DHT22;6054;50.966;7.094;2023-08-30T00:05:53;24.30;52.50
11989;DHT22;6054;50.966;7.094;2023-08-30T00:08:20;24.20;52.30
11989;DHT22;6054;50.966;7.094;2023-08-30T00:10:48;24.10;52.30
11989;DHT22;6054;50.966;7.094;2023-08-30T00:13:15;24.40;52.80
11989;DHT22;6054;50.966;7.094;2023-08-30T00:15:41;24.10;52.40
11989;DHT22;6054;50.966;7.094;2023-08-30T00:18:08;24.10;52.40
11989;DHT22;6054;50.966;7.094;2023-08-30T00:20:35;24.10;52.50
11989;DHT22;6054;50.966;7.094;2023-08-30T00:23:03;24.10;52.40
11989;DHT22;6054;50.966;7.094;2023-08-30T00:25:31;24.00;52.20
11989;DHT22;6054;50.966;7.094;2023-08-30T00:27:57;24.30;52.50
11989;DHT22;6054;50.966;7.094;2023-08-30T00:30:24;24.00;52.20
11989;DHT22;6054;50.966;7.094;2023-08-30T00:32:51;24.00;52.60
11989;DHT22;6054;50.966;7.094;2023-08-30T00:35:18;24.30;52.80
11989;DHT22;6054;50.966;7.094;2023-08-30T00:37:44;24.00;52.60
11989;DHT22;6054;50.966;7.094;2023-08-30T00:40:12;23.90;52.60
11989;DHT22;6054;50.966;7.094;2023-08-30T00:42:39;24.00;52.80
11989;DHT22;6054;50.966;7.094;2023-08-30T00:45:07;24.00;52.90
11989;DHT22;6054;50.966;7.094;2023-08-30T00:47:34;24.00;52.80
11989;DHT22;6054;50.966;7.094;2023-08-30T00:50:01;23.90;52.90
11989;DHT22;6054;50.966;7.094;2023-08-30T00:52:28;24.00;53.40
11989;DHT22;6054;50.966;7.094;2023-08-30T00:54:55;23.90;52.60
11989;DHT22;6054;50.966;7.094;2023-08-30T00:57:23;23.90;52.70
11989;DHT22;6054;50.966;7.094;2023-08-30T00:59:51;23.90;52.70
11989;DHT22;6054;50.966;7.094;2023-08-30T01:02:18;23.90;53.00
11989;DHT22;6054;50.966;7.094;2023-08-30T01:04:45;23.90;52.70
11989;DHT22;6054;50.966;7.094;2023-08-30T01:07:12;23.90;52.80
11989;DHT22;6054;50.966;7.094;2023-08-30T01:09:39;23.90;52.90
11989;DHT22;6054;50.966;7.094;2023-08-30T01:12:09;24.10;53.20
11989;DHT22;6054;50.966;7.094;2023-08-30T01:14:42;23.90;53.20
11989;DHT22;6054;50.966;7.094;2023-08-30T01:17:11;23.90;53.10
11989;DHT22;6054;50.966;7.094;2023-08-30T01:19:46;23.80;53.10
11989;DHT22;6054;50.966;7.094;2023-08-30T01:22:17;23.80;53.30
11989;DHT22;6054;50.966;7.094;2023-08-30T01:24:56;23.90;53.40
11989;DHT22;6054;50.966;7.094;2023-08-30T01:27:26;23.80;53.40
11989;DHT22;6054;50.966;7.094;2023-08-30T01:29:57;23.80;53.30
11989;DHT22;6054;50.966;7.094;2023-08-30T01:32:26;23.80;53.10
11989;DHT22;6054;50.966;7.094;2023-08-30T01:34:55;23.80;53.10
11989;DHT22;6054;50.966;7.094;2023-08-30T01:37:22;23.80;53.30
11989;DHT22;6054;50.966;7.094;2023-08-30T01:39:51;23.80;53.40
11989;DHT22;6054;50.966;7.094;2023-08-30T01:42:18;23.80;53.70
11989;DHT22;6054;50.966;7.094;2023-08-30T01:44:50;23.80;53.70
11989;DHT22;6054;50.966;7.094;2023-08-30T01:47:21;23.80;53.60
11989;DHT22;6054;50.966;7.094;2023-08-30T01:49:49;23.80;53.70
11989;DHT22;6054;50.966;7.094;2023-08-30T01:52:16;23.80;53.80
11989;DHT22;6054;50.966;7.094;2023-08-30T01:54:44;24.00;54.10
11989;DHT22;6054;50.966;7.094;2023-08-30T01:57:11;23.80;53.90
11989;DHT22;6054;50.966;7.094;2023-08-30T01:59:38;23.80;53.70
11989;DHT22;6054;50.966;7.094;2023-08-30T02:02:06;23.80;53.20
11989;DHT22;6054;50.966;7.094;2023-08-30T02:04:33;23.80;53.70
11989;DHT22;6054;50.966;7.094;2023-08-30T02:07:03;23.70;53.60
11989;DHT22;6054;50.966;7.094;2023-08-30T02:09:34;23.80;53.90
11989;DHT22;6054;50.966;7.094;2023-08-30T02:12:05;23.80;54.00
11989;DHT22;6054;50.966;7.094;2023-08-30T02:14:34;23.80;54.00
11989;DHT22;6054;50.966;7.094;2023-08-30T02:17:03;23.80;54.10
11989;DHT22;6054;50.966;7.094;2023-08-30T02:19:31;23.70;53.90
11989;DHT22;6054;50.966;7.094;2023-08-30T02:21:59;23.70;53.90
11989;DHT22;6054;50.966;7.094;2023-08-30T02:24:26;23.80;53.70
11989;DHT22;6054;50.966;7.094;2023-08-30T02:26:52;23.90;54.00
11989;DHT22;6054;50.966;7.094;2023-08-30T02:29:19;23.70;53.90
11989;DHT22;6054;50.966;7.094;2023-08-30T02:31:46;23.70;53.90
11989;DHT22;6054;50.966;7.094;2023-08-30T02:34:13;23.70;53.90
11989;DHT22;6054;50.966;7.094;2023-08-30T02:36:41;23.70;54.00
11989;DHT22;6054;50.966;7.094;2023-08-30T02:39:07;23.70;53.70
11989;DHT22;6054;50.966;7.094;2023-08-30T02:41:34;23.70;53.90
11989;DHT22;6054;50.966;7.094;2023-08-30T02:44:00;23.60;54.00
11989;DHT22;6054;50.966;7.094;2023-08-30T02:46:27;23.60;53.90
11989;DHT22;6054;50.966;7.094;2023-08-30T02:48:54;23.60;54.10
11989;DHT22;6054;50.966;7.094;2023-08-30T02:51:21;23.60;54.10
11989;DHT22;6054;50.966;7.094;2023-08-30T02:53:49;23.70;54.10
11989;DHT22;6054;50.966;7.094;2023-08-30T02:56:16;23.60;54.20
11989;DHT22;6054;50.966;7.094;2023-08-30T02:58:43;23.60;54.30
11989;DHT22;6054;50.966;7.094;2023-08-30T03:01:09;23.60;54.00
11989;DHT22;6054;50.966;7.094;2023-08-30T03:03:36;23.60;54.10
11989;DHT22;6054;50.966;7.094;2023-08-30T03:06:03;23.60;53.90
11989;DHT22;6054;50.966;7.094;2023-08-30T03:08:30;23.60;54.10
11989;DHT22;6054;50.966;7.094;2023-08-30T03:11:09;23.60;54.30
11989;DHT22;6054;50.966;7.094;2023-08-30T03:13:35;23.50;54.50
11989;DHT22;6054;50.966;7.094;2023-08-30T03:16:09;23.50;54.30
11989;DHT22;6054;50.966;7.094;2023-08-30T03:18:36;23.50;54.50
11989;DHT22;6054;50.966;7.094;2023-08-30T03:21:03;23.50;54.20
11989;DHT22;6054;50.966;7.094;2023-08-30T03:23:30;23.50;54.10
11989;DHT22;6054;50.966;7.094;2023-08-30T03:25:57;23.50;54.20
11989;DHT22;6054;50.966;7.094;2023-08-30T03:28:25;23.50;53.80
11989;DHT22;6054;50.966;7.094;2023-08-30T03:30:53;23.40;53.90
11989;DHT22;6054;50.966;7.094;2023-08-30T03:33:20;23.40;53.20
11989;DHT22;6054;50.966;7.094;2023-08-30T03:35:46;23.40;53.30
11989;DHT22;6054;50.966;7.094;2023-08-30T03:38:13;23.40;53.30
11989;DHT22;6054;50.966;7.094;2023-08-30T03:40:40;23.30;53.20
11989;DHT22;6054;50.966;7.094;2023-08-30T03:43:07;23.30;53.30
11989;DHT22;6054;50.966;7.094;2023-08-30T03:45:36;23.30;53.20
11989;DHT22;6054;50.966;7.094;2023-08-30T03:48:03;23.30;53.50
11989;DHT22;6054;50.966;7.094;2023-08-30T03:50:30;23.20;53.60
11989;DHT22;6054;50.966;7.094;2023-08-30T03:52:57;23.20;53.20
11989;DHT22;6054;50.966;7.094;2023-08-30T03:55:24;23.20;53.20
11989;DHT22;6054;50.966;7.094;2023-08-30T03:57:50;23.20;53.30
11989;DHT22;6054;50.966;7.094;2023-08-30T04:00:17;23.20;53.40
11989;DHT22;6054;50.966;7.094;2023-08-30T04:02:45;23.20;53.60
11989;DHT22;6054;50.966;7.094;2023-08-30T04:05:12;23.20;53.70
11989;DHT22;6054;50.966;7.094;2023-08-30T04:07:39;23.20;53.50
11989;DHT22;6054;50.966;7.094;2023-08-30T04:10:06;23.20;53.60
11989;DHT22;6054;50.966;7.094;2023-08-30T04:12:33;23.20;53.80
11989;DHT22;6054;50.966;7.094;2023-08-30T04:15:00;23.10;53.40
11989;DHT22;6054;50.966;7.094;2023-08-30T04:17:27;23.10;53.00
11989;DHT22;6054;50.966;7.094;2023-08-30T04:19:55;23.10;52.80
11989;DHT22;6054;50.966;7.094;2023-08-30T04:22:22;23.10;52.70
11989;DHT22;6054;50.966;7.094;2023-08-30T04:24:49;23.10;53.20
11989;DHT22;6054;50.966;7.094;2023-08-30T04:27:16;23.20;53.30
11989;DHT22;6054;50.966;7.094;2023-08-30T04:29:43;23.00;53.20
11989;DHT22;6054;50.966;7.094;2023-08-30T04:32:10;23.20;52.90
11989;DHT22;6054;50.966;7.094;2023-08-30T04:34:37;23.00;52.90
11989;DHT22;6054;50.966;7.094;2023-08-30T04:37:05;23.00;52.90
11989;DHT22;6054;50.966;7.094;2023-08-30T04:39:32;23.00;52.80
11989;DHT22;6054;50.966;7.094;2023-08-30T04:41:59;23.00;52.60
11989;DHT22;6054;50.966;7.094;2023-08-30T04:44:26;22.90;52.90
11989;DHT22;6054;50.966;7.094;2023-08-30T04:46:53;22.90;52.50
11989;DHT22;6054;50.966;7.094;2023-08-30T04:49:21;22.90;52.70
11989;DHT22;6054;50.966;7.094;2023-08-30T04:51:50;22.80;52.20
11989;DHT22;6054;50.966;7.094;2023-08-30T04:54:18;22.80;52.30
11989;DHT22;6054;50.966;7.094;2023-08-30T04:56:45;22.80;52.80
11989;DHT22;6054;50.966;7.094;2023-08-30T04:59:12;22.80;52.20
11989;DHT22;6054;50.966;7.094;2023-08-30T05:01:39;22.80;52.20
11989;DHT22;6054;50.966;7.094;2023-08-30T05:04:07;22.80;52.30
11989;DHT22;6054;50.966;7.094;2023-08-30T05:06:34;22.70;52.20
11989;DHT22;6054;50.966;7.094;2023-08-30T05:09:01;22.90;52.30
11989;DHT22;6054;50.966;7.094;2023-08-30T05:11:29;22.70;52.40
11989;DHT22;6054;50.966;7.094;2023-08-30T05:13:56;22.70;52.10
11989;DHT22;6054;50.966;7.094;2023-08-30T05:16:22;22.70;52.50
11989;DHT22;6054;50.966;7.094;2023-08-30T05:18:49;22.70;52.50
11989;DHT22;6054;50.966;7.094;2023-08-30T05:21:16;22.60;52.10
11989;DHT22;6054;50.966;7.094;2023-08-30T05:23:43;22.60;52.40
11989;DHT22;6054;50.966;7.094;2023-08-30T05:26:10;22.80;52.80
11989;DHT22;6054;50.966;7.094;2023-08-30T05:28:39;22.60;53.00
11989;DHT22;6054;50.966;7.094;2023-08-30T05:31:06;22.60;52.70
11989;DHT22;6054;50.966;7.094;2023-08-30T05:33:32;22.60;52.90
11989;DHT22;6054;50.966;7.094;2023-08-30T05:35:59;22.60;53.20
11989;DHT22;6054;50.966;7.094;2023-08-30T05:38:26;22.60;53.20
11989;DHT22;6054;50.966;7.094;2023-08-30T05:40:53;22.60;53.30
11989;DHT22;6054;50.966;7.094;2023-08-30T05:43:19;22.60;53.20
11989;DHT22;6054;50.966;7.094;2023-08-30T05:45:47;22.60;53.10
11989;DHT22;6054;50.966;7.094;2023-08-30T05:48:14;22.60;53.00
11989;DHT22;6054;50.966;7.094;2023-08-30T05:50:41;22.60;53.20
11989;DHT22;6054;50.966;7.094;2023-08-30T05:53:08;22.60;53.30
11989;DHT22;6054;50.966;7.094;2023-08-30T05:55:35;22.80;53.60
11989;DHT22;6054;50.966;7.094;2023-08-30T05:58:02;22.60;53.60
11989;DHT22;6054;50.966;7.094;2023-08-30T06:00:29;22.60;53.80
11989;DHT22;6054;50.966;7.094;2023-08-30T06:02:57;22.60;53.70
11989;DHT22;6054;50.966;7.094;2023-08-30T06:05:24;22.60;53.50
11989;DHT22;6054;50.966;7.094;2023-08-30T06:07:51;22.70;53.80
11989;DHT22;6054;50.966;7.094;2023-08-30T06:10:18;22.70;54.00
11989;DHT22;6054;50.966;7.094;2023-08-30T06:12:45;22.70;53.80
11989;DHT22;6054;50.966;7.094;2023-08-30T06:15:11;22.70;54.30
11989;DHT22;6054;50.966;7.094;2023-08-30T06:17:38;22.80;54.40
11989;DHT22;6054;50.966;7.094;2023-08-30T06:20:07;22.80;54.20
11989;DHT22;6054;50.966;7.094;2023-08-30T06:22:34;22.80;54.50
11989;DHT22;6054;50.966;7.094;2023-08-30T06:25:01;22.90;54.00
11989;DHT22;6054;50.966;7.094;2023-08-30T06:27:29;22.90;54.10
11989;DHT22;6054;50.966;7.094;2023-08-30T06:29:56;22.80;54.10
11989;DHT22;6054;50.966;7.094;2023-08-30T06:32:23;22.90;54.10
11989;DHT22;6054;50.966;7.094;2023-08-30T06:34:50;23.10;54.40
11989;DHT22;6054;50.966;7.094;2023-08-30T06:37:18;23.00;54.30
11989;DHT22;6054;50.966;7.094;2023-08-30T06:39:44;23.00;54.30
11989;DHT22;6054;50.966;7.094;2023-08-30T06:42:11;23.00;54.50
11989;DHT22;6054;50.966;7.094;2023-08-30T06:44:38;23.00;54.30
11989;DHT22;6054;50.966;7.094;2023-08-30T06:47:06;23.10;54.30
11989;DHT22;6054;50.966;7.094;2023-08-30T06:49:32;23.10;54.10
11989;DHT22;6054;50.966;7.094;2023-08-30T06:51:59;23.20;54.30
11989;DHT22;6054;50.966;7.094;2023-08-30T06:54:28;23.20;54.20
11989;DHT22;6054;50.966;7.094;2023-08-30T06:56:58;23.20;54.40
11989;DHT22;6054;50.966;7.094;2023-08-30T06:59:25;23.50;54.40
11989;DHT22;6054;50.966;7.094;2023-08-30T07:01:52;23.30;53.90
11989;DHT22;6054;50.966;7.094;2023-08-30T07:04:19;23.40;54.00
11989;DHT22;6054;50.966;7.094;2023-08-30T07:06:46;23.40;54.00
11989;DHT22;6054;50.966;7.094;2023-08-30T07:09:13;23.50;53.80
11989;DHT22;6054;50.966;7.094;2023-08-30T07:11:43;23.50;53.80
11989;DHT22;6054;50.966;7.094;2023-08-30T07:14:10;23.50;53.50
11989;DHT22;6054;50.966;7.094;2023-08-30T07:16:37;23.50;53.00
11989;DHT22;6054;50.966;7.094;2023-08-30T07:19:04;23.60;53.10
11989;DHT22;6054;50.966;7.094;2023-08-30T07:21:31;23.70;53.50
11989;DHT22;6054;50.966;7.094;2023-08-30T07:23:57;23.90;53.50
11989;DHT22;6054;50.966;7.094;2023-08-30T07:26:24;23.80;53.50
11989;DHT22;6054;50.966;7.094;2023-08-30T07:28:52;23.80;53.20
11989;DHT22;6054;50.966;7.094;2023-08-30T07:31:18;23.90;52.90
11989;DHT22;6054;50.966;7.094;2023-08-30T07:33:47;24.10;52.80
11989;DHT22;6054;50.966;7.094;2023-08-30T07:36:13;23.90;53.20
11989;DHT22;6054;50.966;7.094;2023-08-30T07:38:40;24.00;52.90
11989;DHT22;6054;50.966;7.094;2023-08-30T07:41:07;24.00;52.80
11989;DHT22;6054;50.966;7.094;2023-08-30T07:43:34;24.10;52.80
11989;DHT22;6054;50.966;7.094;2023-08-30T07:46:02;24.10;52.80
11989;DHT22;6054;50.966;7.094;2023-08-30T07:48:29;24.20;52.30
11989;DHT22;6054;50.966;7.094;2023-08-30T07:50:55;24.30;52.70
11989;DHT22;6054;50.966;7.094;2023-08-30T07:53:22;24.50;52.60
11989;DHT22;6054;50.966;7.094;2023-08-30T07:55:49;24.40;52.30
11989;DHT22;6054;50.966;7.094;2023-08-30T07:58:17;24.50;52.30
11989;DHT22;6054;50.966;7.094;2023-08-30T08:00:43;24.50;52.00
11989;DHT22;6054;50.966;7.094;2023-08-30T08:03:11;24.50;51.80
11989;DHT22;6054;50.966;7.094;2023-08-30T08:05:38;24.60;51.60
11989;DHT22;6054;50.966;7.094;2023-08-30T08:08:05;24.70;51.80
11989;DHT22;6054;50.966;7.094;2023-08-30T08:10:32;24.70;51.60
11989;DHT22;6054;50.966;7.094;2023-08-30T08:12:59;24.80;51.60
11989;DHT22;6054;50.966;7.094;2023-08-30T08:15:28;24.90;51.10
11989;DHT22;6054;50.966;7.094;2023-08-30T08:17:56;24.90;51.10
11989;DHT22;6054;50.966;7.094;2023-08-30T08:20:24;24.90;50.80
11989;DHT22;6054;50.966;7.094;2023-08-30T08:22:51;25.00;50.90
11989;DHT22;6054;50.966;7.094;2023-08-30T08:25:17;25.10;50.70
11989;DHT22;6054;50.966;7.094;2023-08-30T08:27:46;25.20;50.60
11989;DHT22;6054;50.966;7.094;2023-08-30T08:30:13;25.30;50.50
11989;DHT22;6054;50.966;7.094;2023-08-30T08:32:40;25.30;49.90
11989;DHT22;6054;50.966;7.094;2023-08-30T08:35:07;25.40;50.00
11989;DHT22;6054;50.966;7.094;2023-08-30T08:37:35;25.50;50.50
11989;DHT22;6054;50.966;7.094;2023-08-30T08:40:03;25.70;50.30
11989;DHT22;6054;50.966;7.094;2023-08-30T08:42:34;25.70;49.80
11989;DHT22;6054;50.966;7.094;2023-08-30T08:45:02;25.90;49.30
11989;DHT22;6054;50.966;7.094;2023-08-30T08:47:30;25.80;48.60
11989;DHT22;6054;50.966;7.094;2023-08-30T08:49:57;25.90;48.50
11989;DHT22;6054;50.966;7.094;2023-08-30T08:52:25;25.90;48.00
11989;DHT22;6054;50.966;7.094;2023-08-30T08:54:54;26.00;47.70
11989;DHT22;6054;50.966;7.094;2023-08-30T08:57:21;26.00;47.10
11989;DHT22;6054;50.966;7.094;2023-08-30T08:59:48;26.20;47.20
11989;DHT22;6054;50.966;7.094;2023-08-30T09:02:16;26.30;46.60
11989;DHT22;6054;50.966;7.094;2023-08-30T09:04:43;26.20;46.30
11989;DHT22;6054;50.966;7.094;2023-08-30T09:07:10;26.30;46.20
11989;DHT22;6054;50.966;7.094;2023-08-30T09:09:38;26.40;46.50
11989;DHT22;6054;50.966;7.094;2023-08-30T09:12:06;26.40;46.50
11989;DHT22;6054;50.966;7.094;2023-08-30T09:14:33;26.50;46.60
11989;DHT22;6054;50.966;7.094;2023-08-30T09:17:01;26.60;46.30
11989;DHT22;6054;50.966;7.094;2023-08-30T09:19:28;26.60;46.20
11989;DHT22;6054;50.966;7.094;2023-08-30T09:21:57;26.70;46.20
11989;DHT22;6054;50.966;7.094;2023-08-30T09:24:24;26.60;46.40
11989;DHT22;6054;50.966;7.094;2023-08-30T09:26:51;26.70;46.00
11989;DHT22;6054;50.966;7.094;2023-08-30T09:29:21;26.70;46.40
11989;DHT22;6054;50.966;7.094;2023-08-30T09:31:51;26.70;46.30
11989;DHT22;6054;50.966;7.094;2023-08-30T09:34:22;26.80;44.90
11989;DHT22;6054;50.966;7.094;2023-08-30T09:36:49;26.80;44.50
11989;DHT22;6054;50.966;7.094;2023-08-30T09:39:16;26.80;44.20
11989;DHT22;6054;50.966;7.094;2023-08-30T09:41:45;26.80;43.80
11989;DHT22;6054;50.966;7.094;2023-08-30T09:44:13;26.80;43.70
11989;DHT22;6054;50.966;7.094;2023-08-30T09:46:42;26.80;43.50
11989;DHT22;6054;50.966;7.094;2023-08-30T09:49:09;26.80;43.40
11989;DHT22;6054;50.966;7.094;2023-08-30T09:51:38;26.70;43.40
11989;DHT22;6054;50.966;7.094;2023-08-30T09:54:13;26.80;44.30
11989;DHT22;6054;50.966;7.094;2023-08-30T09:56:41;26.70;45.00
11989;DHT22;6054;50.966;7.094;2023-08-30T09:59:08;26.70;45.20
11989;DHT22;6054;50.966;7.094;2023-08-30T10:01:36;26.60;45.50
11989;DHT22;6054;50.966;7.094;2023-08-30T10:04:07;26.50;45.80
11989;DHT22;6054;50.966;7.094;2023-08-30T10:06:35;26.40;46.70
11989;DHT22;6054;50.966;7.094;2023-08-30T10:09:02;26.40;46.60
11989;DHT22;6054;50.966;7.094;2023-08-30T10:11:30;26.40;46.50
11989;DHT22;6054;50.966;7.094;2023-08-30T10:13:59;26.30;46.90
11989;DHT22;6054;50.966;7.094;2023-08-30T10:16:26;26.40;47.40
11989;DHT22;6054;50.966;7.094;2023-08-30T10:19:09;26.30;47.90
11989;DHT22;6054;50.966;7.094;2023-08-30T10:21:37;26.40;48.40
11989;DHT22;6054;50.966;7.094;2023-08-30T10:24:06;26.30;48.30
11989;DHT22;6054;50.966;7.094;2023-08-30T10:26:33;26.30;48.50
11989;DHT22;6054;50.966;7.094;2023-08-30T10:29:01;26.30;48.30
11989;DHT22;6054;50.966;7.094;2023-08-30T10:31:29;26.30;48.40
11989;DHT22;6054;50.966;7.094;2023-08-30T10:33:56;26.20;48.30
11989;DHT22;6054;50.966;7.094;2023-08-30T10:36:25;26.20;48.40
11989;DHT22;6054;50.966;7.094;2023-08-30T10:38:53;26.10;49.10
11989;DHT22;6054;50.966;7.094;2023-08-30T10:41:21;26.10;49.20
11989;DHT22;6054;50.966;7.094;2023-08-30T10:43:50;26.20;49.40
11989;DHT22;6054;50.966;7.094;2023-08-30T10:46:28;26.10;49.50
11989;DHT22;6054;50.966;7.094;2023-08-30T10:48:56;26.00;49.60
11989;DHT22;6054;50.966;7.094;2023-08-30T10:51:38;26.00;49.50
11989;DHT22;6054;50.966;7.094;2023-08-30T10:54:12;26.00;50.00
11989;DHT22;6054;50.966;7.094;2023-08-30T10:56:46;26.00;50.30
11989;DHT22;6054;50.966;7.094;2023-08-30T10:59:17;26.00;50.50
11989;DHT22;6054;50.966;7.094;2023-08-30T11:01:46;26.00;50.60
11989;DHT22;6054;50.966;7.094;2023-08-30T11:04:14;26.10;50.70
11989;DHT22;6054;50.966;7.094;2023-08-30T11:06:43;26.10;50.90
11989;DHT22;6054;50.966;7.094;2023-08-30T11:09:10;26.00;50.80
11989;DHT22;6054;50.966;7.094;2023-08-30T11:11:38;26.10;51.00
11989;DHT22;6054;50.966;7.094;2023-08-30T11:14:06;26.10;50.80
11989;DHT22;6054;50.966;7.094;2023-08-30T11:16:33;26.10;50.70
11989;DHT22;6054;50.966;7.094;2023-08-30T11:19:00;26.10;50.30
11989;DHT22;6054;50.966;7.094;2023-08-30T11:21:27;26.10;50.90
11989;DHT22;6054;50.966;7.094;2023-08-30T11:23:55;26.10;50.10
11989;DHT22;6054;50.966;7.094;2023-08-30T11:26:22;26.00;50.20
11989;DHT22;6054;50.966;7.094;2023-08-30T11:28:49;26.20;50.50
11989;DHT22;6054;50.966;7.094;2023-08-30T11:31:18;26.10;50.40
11989;DHT22;6054;50.966;7.094;2023-08-30T11:33:51;26.10;51.30
11989;DHT22;6054;50.966;7.094;2023-08-30T11:36:18;26.10;52.00
11989;DHT22;6054;50.966;7.094;2023-08-30T11:38:46;25.90;52.40
11989;DHT22;6054;50.966;7.094;2023-08-30T11:41:15;25.80;52.30
11989;DHT22;6054;50.966;7.094;2023-08-30T11:43:41;25.60;53.10
11989;DHT22;6054;50.966;7.094;2023-08-30T11:46:08;25.40;53.70
11989;DHT22;6054;50.966;7.094;2023-08-30T11:48:38;25.30;54.40
11989;DHT22;6054;50.966;7.094;2023-08-30T11:51:05;25.10;55.10
11989;DHT22;6054;50.966;7.094;2023-08-30T11:53:32;24.90;55.60
11989;DHT22;6054;50.966;7.094;2023-08-30T11:56:00;24.80;56.10
11989;DHT22;6054;50.966;7.094;2023-08-30T11:58:29;24.70;56.60
11989;DHT22;6054;50.966;7.094;2023-08-30T12:00:58;24.70;57.20
11989;DHT22;6054;50.966;7.094;2023-08-30T12:03:26;24.60;57.00
11989;DHT22;6054;50.966;7.094;2023-08-30T12:05:54;24.50;57.60
11989;DHT22;6054;50.966;7.094;2023-08-30T12:08:23;24.50;58.10
11989;DHT22;6054;50.966;7.094;2023-08-30T12:10:50;24.50;58.60
11989;DHT22;6054;50.966;7.094;2023-08-30T12:13:21;24.50;58.70
11989;DHT22;6054;50.966;7.094;2023-08-30T12:15:49;24.50;59.20
11989;DHT22;6054;50.966;7.094;2023-08-30T12:18:16;24.40;59.00
11989;DHT22;6054;50.966;7.094;2023-08-30T12:20:53;24.40;59.40
11989;DHT22;6054;50.966;7.094;2023-08-30T12:23:21;24.40;59.90
11989;DHT22;6054;50.966;7.094;2023-08-30T12:26:01;24.40;59.90
11989;DHT22;6054;50.966;7.094;2023-08-30T12:28:30;24.40;60.30
11989;DHT22;6054;50.966;7.094;2023-08-30T12:30:58;24.40;60.50
11989;DHT22;6054;50.966;7.094;2023-08-30T12:33:25;24.40;60.70
11989;DHT22;6054;50.966;7.094;2023-08-30T12:35:53;24.50;60.40
11989;DHT22;6054;50.966;7.094;2023-08-30T12:38:20;24.40;60.90
11989;DHT22;6054;50.966;7.094;2023-08-30T12:40:48;24.50;60.90
11989;DHT22;6054;50.966;7.094;2023-08-30T12:43:16;24.50;61.40
11989;DHT22;6054;50.966;7.094;2023-08-30T12:45:43;24.50;61.30
11989;DHT22;6054;50.966;7.094;2023-08-30T12:48:12;24.70;61.20
11989;DHT22;6054;50.966;7.094;2023-08-30T12:50:41;24.50;61.40
11989;DHT22;6054;50.966;7.094;2023-08-30T12:53:08;24.50;61.60
11989;DHT22;6054;50.966;7.094;2023-08-30T12:55:35;24.50;60.80
11989;DHT22;6054;50.966;7.094;2023-08-30T12:58:03;24.50;60.40
11989;DHT22;6054;50.966;7.094;2023-08-30T13:00:30;24.40;59.90
11989;DHT22;6054;50.966;7.094;2023-08-30T13:02:56;24.30;60.30
11989;DHT22;6054;50.966;7.094;2023-08-30T13:05:25;24.30;60.20
11989;DHT22;6054;50.966;7.094;2023-08-30T13:07:52;24.40;60.80
11989;DHT22;6054;50.966;7.094;2023-08-30T13:10:19;24.30;61.30
11989;DHT22;6054;50.966;7.094;2023-08-30T13:12:45;24.10;61.20
11989;DHT22;6054;50.966;7.094;2023-08-30T13:15:12;24.30;60.80
11989;DHT22;6054;50.966;7.094;2023-08-30T13:17:39;24.00;60.80
11989;DHT22;6054;50.966;7.094;2023-08-30T13:20:06;24.00;61.10
11989;DHT22;6054;50.966;7.094;2023-08-30T13:22:34;23.90;62.10
11989;DHT22;6054;50.966;7.094;2023-08-30T13:25:02;24.00;61.60
11989;DHT22;6054;50.966;7.094;2023-08-30T13:27:35;23.90;62.60
11989;DHT22;6054;50.966;7.094;2023-08-30T13:30:02;23.80;61.70
11989;DHT22;6054;50.966;7.094;2023-08-30T13:32:29;23.90;62.50
11989;DHT22;6054;50.966;7.094;2023-08-30T13:34:56;23.90;62.50
11989;DHT22;6054;50.966;7.094;2023-08-30T13:37:23;23.80;62.70
11989;DHT22;6054;50.966;7.094;2023-08-30T13:39:52;23.80;63.80
11989;DHT22;6054;50.966;7.094;2023-08-30T13:42:19;23.80;63.70
11989;DHT22;6054;50.966;7.094;2023-08-30T13:44:46;23.90;64.10
11989;DHT22;6054;50.966;7.094;2023-08-30T13:47:13;23.90;64.20
11989;DHT22;6054;50.966;7.094;2023-08-30T13:49:41;23.80;64.00
11989;DHT22;6054;50.966;7.094;2023-08-30T13:52:08;24.00;64.00
11989;DHT22;6054;50.966;7.094;2023-08-30T13:54:35;23.80;64.00
11989;DHT22;6054;50.966;7.094;2023-08-30T13:57:03;23.80;64.50
11989;DHT22;6054;50.966;7.094;2023-08-30T13:59:30;23.90;64.50
11989;DHT22;6054;50.966;7.094;2023-08-30T14:01:57;23.90;64.60
11989;DHT22;6054;50.966;7.094;2023-08-30T14:04:24;23.90;64.60
11989;DHT22;6054;50.966;7.094;2023-08-30T14:06:51;23.90;64.00
11989;DHT22;6054;50.966;7.094;2023-08-30T14:09:18;23.80;63.80
11989;DHT22;6054;50.966;7.094;2023-08-30T14:11:44;23.80;63.70
11989;DHT22;6054;50.966;7.094;2023-08-30T14:14:12;23.70;64.00
11989;DHT22;6054;50.966;7.094;2023-08-30T14:16:39;23.70;64.10
11989;DHT22;6054;50.966;7.094;2023-08-30T14:19:06;23.70;64.30
11989;DHT22;6054;50.966;7.094;2023-08-30T14:21:33;23.70;64.60
11989;DHT22;6054;50.966;7.094;2023-08-30T14:24:00;23.60;64.60
11989;DHT22;6054;50.966;7.094;2023-08-30T14:26:28;23.60;64.80
11989;DHT22;6054;50.966;7.094;2023-08-30T14:28:54;23.60;64.50
11989;DHT22;6054;50.966;7.094;2023-08-30T14:31:23;23.50;64.10
11989;DHT22;6054;50.966;7.094;2023-08-30T14:33:49;23.50;64.40
11989;DHT22;6054;50.966;7.094;2023-08-30T14:36:16;23.50;64.90
11989;DHT22;6054;50.966;7.094;2023-08-30T14:38:43;23.50;65.10
11989;DHT22;6054;50.966;7.094;2023-08-30T14:41:09;23.50;64.60
11989;DHT22;6054;50.966;7.094;2023-08-30T14:43:37;23.50;64.20
11989;DHT22;6054;50.966;7.094;2023-08-30T14:46:05;23.50;63.50
11989;DHT22;6054;50.966;7.094;2023-08-30T14:48:33;23.40;64.10
11989;DHT22;6054;50.966;7.094;2023-08-30T14:51:01;23.40;64.50
11989;DHT22;6054;50.966;7.094;2023-08-30T14:53:28;23.30;64.60
11989;DHT22;6054;50.966;7.094;2023-08-30T14:55:54;23.30;64.00
11989;DHT22;6054;50.966;7.094;2023-08-30T14:58:21;23.30;64.30
11989;DHT22;6054;50.966;7.094;2023-08-30T15:00:48;23.30;64.80
11989;DHT22;6054;50.966;7.094;2023-08-30T15:03:15;23.20;65.20
11989;DHT22;6054;50.966;7.094;2023-08-30T15:05:51;23.20;65.50
11989;DHT22;6054;50.966;7.094;2023-08-30T15:08:19;23.30;66.20
11989;DHT22;6054;50.966;7.094;2023-08-30T15:10:45;23.30;66.00
11989;DHT22;6054;50.966;7.094;2023-08-30T15:13:12;23.30;65.50
11989;DHT22;6054;50.966;7.094;2023-08-30T15:15:39;23.30;65.50
11989;DHT22;6054;50.966;7.094;2023-08-30T15:18:06;23.40;65.70
11989;DHT22;6054;50.966;7.094;2023-08-30T15:20:34;23.40;65.70
11989;DHT22;6054;50.966;7.094;2023-08-30T15:23:02;23.30;65.90
11989;DHT22;6054;50.966;7.094;2023-08-30T15:25:29;23.40;65.10
11989;DHT22;6054;50.966;7.094;2023-08-30T15:27:56;23.30;65.20
11989;DHT22;6054;50.966;7.094;2023-08-30T15:30:23;23.60;66.50
11989;DHT22;6054;50.966;7.094;2023-08-30T15:32:50;23.40;67.30
11989;DHT22;6054;50.966;7.094;2023-08-30T15:35:17;23.40;66.90
11989;DHT22;6054;50.966;7.094;2023-08-30T15:37:44;23.50;66.00
11989;DHT22;6054;50.966;7.094;2023-08-30T15:40:12;23.50;65.50
11989;DHT22;6054;50.966;7.094;2023-08-30T15:42:39;23.50;65.50
11989;DHT22;6054;50.966;7.094;2023-08-30T15:45:06;23.40;65.60
11989;DHT22;6054;50.966;7.094;2023-08-30T15:47:33;23.50;66.40